sensor_id;sensor_type;location;lat;lon;timestamp;P1;durP1;ratioP1;P2;durP2;ratioP2
37449;SDS011;23309;52.582;13.406;2023-12-20T00:17:30;2.80;;;2.60;;
37449;SDS011;23309;52.582;13.406;2023-12-20T00:19:56;3.20;;;2.90;;
37449;SDS011;23309;52.582;13.406;2023-12-20T00:22:22;2.90;;;2.70;;
37449;SDS011;23309;52.582;13.406;2023-12-20T00:24:47;3.10;;;2.90;;
37449;SDS011;23309;52.582;13.406;2023-12-20T00:27:13;2.63;;;2.43;;
37449;SDS011;23309;52.582;13.406;2023-12-20T00:29:39;2.67;;;2.47;;
37449;SDS011;23309;52.582;13.406;2023-12-20T00:32:04;2.83;;;2.63;;
37449;SDS011;23309;52.582;13.406;2023-12-20T00:34:30;2.83;;;2.63;;
37449;SDS011;23309;52.582;13.406;2023-12-20T00:36:56;3.30;;;2.90;;
37449;SDS011;23309;52.582;13.406;2023-12-20T00:39:21;2.80;;;2.60;;
37449;SDS011;23309;52.582;13.406;2023-12-20T00:41:47;3.20;;;2.90;;
37449;SDS011;23309;52.582;13.406;2023-12-20T00:44:12;3.33;;;3.00;;
37449;SDS011;23309;52.582;13.406;2023-12-20T00:46:38;3.30;;;3.00;;
37449;SDS011;23309;52.582;13.406;2023-12-20T00:49:04;2.90;;;2.70;;
37449;SDS011;23309;52.582;13.406;2023-12-20T00:51:29;2.97;;;2.77;;
37449;SDS011;23309;52.582;13.406;2023-12-20T00:53:55;3.10;;;2.80;;
37449;SDS011;23309;52.582;13.406;2023-12-20T00:56:21;3.13;;;2.83;;
37449;SDS011;23309;52.582;13.406;2023-12-20T00:58:47;3.17;;;2.90;;
37449;SDS011;23309;52.582;13.406;2023-12-20T01:01:12;2.80;;;2.60;;
37449;SDS011;23309;52.582;13.406;2023-12-20T01:03:38;2.87;;;2.67;;
37449;SDS011;23309;52.582;13.406;2023-12-20T01:06:03;3.10;;;2.80;;
37449;SDS011;23309;52.582;13.406;2023-12-20T01:08:30;3.17;;;2.93;;
37449;SDS011;23309;52.582;13.406;2023-12-20T01:10:55;3.17;;;2.90;;
37449;SDS011;23309;52.582;13.406;2023-12-20T01:13:21;2.90;;;2.70;;
37449;SDS011;23309;52.582;13.406;2023-12-20T01:15:46;2.93;;;2.73;;
37449;SDS011;23309;52.582;13.406;2023-12-20T01:18:13;3.10;;;2.80;;
37449;SDS011;23309;52.582;13.406;2023-12-20T01:20:39;3.10;;;2.80;;
37449;SDS011;23309;52.582;13.406;2023-12-20T01:23:04;3.20;;;2.90;;
37449;SDS011;23309;52.582;13.406;2023-12-20T01:25:30;3.17;;;2.90;;
37449;SDS011;23309;52.582;13.406;2023-12-20T01:27:55;2.90;;;2.60;;
37449;SDS011;23309;52.582;13.406;2023-12-20T01:30:21;3.20;;;2.90;;
37449;SDS011;23309;52.582;13.406;2023-12-20T01:32:46;2.57;;;2.37;;
37449;SDS011;23309;52.582;13.406;2023-12-20T01:35:12;3.20;;;2.80;;
37449;SDS011;23309;52.582;13.406;2023-12-20T01:37:38;2.60;;;2.40;;
37449;SDS011;23309;52.582;13.406;2023-12-20T01:40:04;2.67;;;2.47;;
37449;SDS011;23309;52.582;13.406;2023-12-20T01:42:30;2.97;;;2.77;;
37449;SDS011;23309;52.582;13.406;2023-12-20T01:44:55;2.60;;;2.40;;
37449;SDS011;23309;52.582;13.406;2023-12-20T01:47:21;2.47;;;2.27;;
37449;SDS011;23309;52.582;13.406;2023-12-20T01:49:47;2.47;;;2.27;;
37449;SDS011;23309;52.582;13.406;2023-12-20T01:52:13;2.73;;;2.53;;
37449;SDS011;23309;52.582;13.406;2023-12-20T01:54:38;2.27;;;2.07;;
37449;SDS011;23309;52.582;13.406;2023-12-20T01:57:05;2.50;;;2.30;;
37449;SDS011;23309;52.582;13.406;2023-12-20T01:59:32;3.30;;;2.20;;
37449;SDS011;23309;52.582;13.406;2023-12-20T02:01:57;4.23;;;2.67;;
37449;SDS011;23309;52.582;13.406;2023-12-20T02:04:23;2.30;;;2.10;;
37449;SDS011;23309;52.582;13.406;2023-12-20T02:06:50;2.90;;;2.27;;
37449;SDS011;23309;52.582;13.406;2023-12-20T02:09:17;2.33;;;2.13;;
37449;SDS011;23309;52.582;13.406;2023-12-20T02:11:43;2.23;;;2.03;;
37449;SDS011;23309;52.582;13.406;2023-12-20T02:14:09;2.50;;;2.13;;
37449;SDS011;23309;52.582;13.406;2023-12-20T02:16:34;3.47;;;2.00;;
37449;SDS011;23309;52.582;13.406;2023-12-20T02:19:00;4.10;;;2.10;;
37449;SDS011;23309;52.582;13.406;2023-12-20T02:21:31;2.40;;;1.67;;
37449;SDS011;23309;52.582;13.406;2023-12-20T02:23:58;3.20;;;1.60;;
37449;SDS011;23309;52.582;13.406;2023-12-20T02:26:23;2.87;;;1.90;;
37449;SDS011;23309;52.582;13.406;2023-12-20T02:28:49;2.47;;;1.80;;
37449;SDS011;23309;52.582;13.406;2023-12-20T02:31:15;1.67;;;1.57;;
37449;SDS011;23309;52.582;13.406;2023-12-20T02:33:40;3.10;;;1.87;;
37449;SDS011;23309;52.582;13.406;2023-12-20T02:36:07;2.20;;;1.50;;
37449;SDS011;23309;52.582;13.406;2023-12-20T02:38:32;2.80;;;1.70;;
37449;SDS011;23309;52.582;13.406;2023-12-20T02:40:59;2.00;;;1.27;;
37449;SDS011;23309;52.582;13.406;2023-12-20T02:43:24;1.83;;;1.20;;
37449;SDS011;23309;52.582;13.406;2023-12-20T02:45:50;1.93;;;1.30;;
37449;SDS011;23309;52.582;13.406;2023-12-20T02:48:16;3.30;;;1.60;;
37449;SDS011;23309;52.582;13.406;2023-12-20T02:50:42;3.30;;;1.30;;
37449;SDS011;23309;52.582;13.406;2023-12-20T02:53:08;1.50;;;1.20;;
37449;SDS011;23309;52.582;13.406;2023-12-20T02:55:34;2.23;;;1.20;;
37449;SDS011;23309;52.582;13.406;2023-12-20T02:58:00;3.53;;;1.10;;
37449;SDS011;23309;52.582;13.406;2023-12-20T03:00:26;4.57;;;1.47;;
37449;SDS011;23309;52.582;13.406;2023-12-20T03:02:51;6.30;;;1.47;;
37449;SDS011;23309;52.582;13.406;2023-12-20T03:05:17;3.07;;;1.30;;
37449;SDS011;23309;52.582;13.406;2023-12-20T03:07:42;2.27;;;1.20;;
37449;SDS011;23309;52.582;13.406;2023-12-20T03:10:08;4.00;;;1.50;;
37449;SDS011;23309;52.582;13.406;2023-12-20T03:12:34;4.70;;;1.50;;
37449;SDS011;23309;52.582;13.406;2023-12-20T03:15:00;3.63;;;1.60;;
37449;SDS011;23309;52.582;13.406;2023-12-20T03:17:25;9.17;;;1.77;;
37449;SDS011;23309;52.582;13.406;2023-12-20T03:19:51;3.90;;;1.40;;
37449;SDS011;23309;52.582;13.406;2023-12-20T03:22:16;1.60;;;1.00;;
37449;SDS011;23309;52.582;13.406;2023-12-20T03:24:42;4.07;;;1.60;;
37449;SDS011;23309;52.582;13.406;2023-12-20T03:27:07;6.47;;;1.50;;
37449;SDS011;23309;52.582;13.406;2023-12-20T03:29:33;4.37;;;1.30;;
37449;SDS011;23309;52.582;13.406;2023-12-20T03:31:58;4.93;;;1.50;;
37449;SDS011;23309;52.582;13.406;2023-12-20T03:34:24;5.60;;;1.33;;
37449;SDS011;23309;52.582;13.406;2023-12-20T03:36:50;4.63;;;1.90;;
37449;SDS011;23309;52.582;13.406;2023-12-20T03:39:15;6.30;;;1.63;;
37449;SDS011;23309;52.582;13.406;2023-12-20T03:41:41;2.20;;;1.30;;
37449;SDS011;23309;52.582;13.406;2023-12-20T03:44:06;5.77;;;1.60;;
37449;SDS011;23309;52.582;13.406;2023-12-20T03:46:32;6.27;;;1.50;;
37449;SDS011;23309;52.582;13.406;2023-12-20T03:48:57;5.70;;;1.27;;
37449;SDS011;23309;52.582;13.406;2023-12-20T03:51:23;7.17;;;1.50;;
37449;SDS011;23309;52.582;13.406;2023-12-20T03:53:48;4.00;;;1.37;;
37449;SDS011;23309;52.582;13.406;2023-12-20T03:56:14;3.60;;;1.50;;
37449;SDS011;23309;52.582;13.406;2023-12-20T03:58:39;2.70;;;1.20;;
37449;SDS011;23309;52.582;13.406;2023-12-20T04:01:09;6.10;;;1.70;;
37449;SDS011;23309;52.582;13.406;2023-12-20T04:03:36;4.30;;;1.73;;
37449;SDS011;23309;52.582;13.406;2023-12-20T04:06:02;6.73;;;1.60;;
37449;SDS011;23309;52.582;13.406;2023-12-20T04:08:28;6.57;;;1.87;;
37449;SDS011;23309;52.582;13.406;2023-12-20T04:10:54;4.73;;;1.60;;
37449;SDS011;23309;52.582;13.406;2023-12-20T04:13:19;4.13;;;1.93;;
37449;SDS011;23309;52.582;13.406;2023-12-20T04:15:45;7.67;;;1.57;;
37449;SDS011;23309;52.582;13.406;2023-12-20T04:18:10;10.17;;;2.07;;
37449;SDS011;23309;52.582;13.406;2023-12-20T04:20:36;4.87;;;1.90;;
37449;SDS011;23309;52.582;13.406;2023-12-20T04:23:01;4.03;;;1.67;;
37449;SDS011;23309;52.582;13.406;2023-12-20T04:25:27;7.90;;;1.50;;
37449;SDS011;23309;52.582;13.406;2023-12-20T04:27:52;9.97;;;2.10;;
37449;SDS011;23309;52.582;13.406;2023-12-20T04:30:18;4.77;;;1.77;;
37449;SDS011;23309;52.582;13.406;2023-12-20T04:32:43;9.27;;;1.90;;
37449;SDS011;23309;52.582;13.406;2023-12-20T04:35:09;10.87;;;1.77;;
37449;SDS011;23309;52.582;13.406;2023-12-20T04:37:35;5.77;;;1.63;;
37449;SDS011;23309;52.582;13.406;2023-12-20T04:40:00;7.37;;;2.30;;
37449;SDS011;23309;52.582;13.406;2023-12-20T04:42:26;8.83;;;1.80;;
37449;SDS011;23309;52.582;13.406;2023-12-20T04:44:52;6.47;;;1.77;;
37449;SDS011;23309;52.582;13.406;2023-12-20T04:47:17;10.00;;;1.87;;
37449;SDS011;23309;52.582;13.406;2023-12-20T04:49:43;8.03;;;1.70;;
37449;SDS011;23309;52.582;13.406;2023-12-20T04:52:08;6.90;;;1.83;;
37449;SDS011;23309;52.582;13.406;2023-12-20T04:54:34;10.67;;;2.17;;
37449;SDS011;23309;52.582;13.406;2023-12-20T04:56:59;6.60;;;2.00;;
37449;SDS011;23309;52.582;13.406;2023-12-20T04:59:25;4.20;;;1.43;;
37449;SDS011;23309;52.582;13.406;2023-12-20T05:01:51;4.10;;;1.67;;
37449;SDS011;23309;52.582;13.406;2023-12-20T05:04:16;10.77;;;2.20;;
37449;SDS011;23309;52.582;13.406;2023-12-20T05:06:42;7.60;;;1.90;;
37449;SDS011;23309;52.582;13.406;2023-12-20T05:09:07;8.03;;;2.17;;
37449;SDS011;23309;52.582;13.406;2023-12-20T05:11:34;3.80;;;1.60;;
37449;SDS011;23309;52.582;13.406;2023-12-20T05:13:59;9.60;;;1.87;;
37449;SDS011;23309;52.582;13.406;2023-12-20T05:16:25;6.83;;;1.90;;
37449;SDS011;23309;52.582;13.406;2023-12-20T05:18:50;6.70;;;2.40;;
37449;SDS011;23309;52.582;13.406;2023-12-20T05:21:17;4.67;;;1.87;;
37449;SDS011;23309;52.582;13.406;2023-12-20T05:23:43;6.43;;;2.37;;
37449;SDS011;23309;52.582;13.406;2023-12-20T05:26:08;7.07;;;2.20;;
37449;SDS011;23309;52.582;13.406;2023-12-20T05:28:34;10.10;;;2.10;;
37449;SDS011;23309;52.582;13.406;2023-12-20T05:30:59;13.57;;;2.60;;
37449;SDS011;23309;52.582;13.406;2023-12-20T05:33:25;8.53;;;1.87;;
37449;SDS011;23309;52.582;13.406;2023-12-20T05:35:51;8.10;;;2.00;;
37449;SDS011;23309;52.582;13.406;2023-12-20T05:38:16;10.33;;;2.30;;
37449;SDS011;23309;52.582;13.406;2023-12-20T05:40:42;4.33;;;2.03;;
37449;SDS011;23309;52.582;13.406;2023-12-20T05:43:09;12.70;;;2.40;;
37449;SDS011;23309;52.582;13.406;2023-12-20T05:45:34;7.20;;;1.70;;
37449;SDS011;23309;52.582;13.406;2023-12-20T05:48:00;6.93;;;1.80;;
37449;SDS011;23309;52.582;13.406;2023-12-20T05:50:25;9.00;;;2.20;;
37449;SDS011;23309;52.582;13.406;2023-12-20T05:52:51;12.47;;;2.03;;
37449;SDS011;23309;52.582;13.406;2023-12-20T05:55:16;3.80;;;1.70;;
37449;SDS011;23309;52.582;13.406;2023-12-20T05:57:42;6.90;;;2.17;;
37449;SDS011;23309;52.582;13.406;2023-12-20T06:00:08;8.37;;;2.30;;
37449;SDS011;23309;52.582;13.406;2023-12-20T06:02:34;3.53;;;1.33;;
37449;SDS011;23309;52.582;13.406;2023-12-20T06:05:01;6.50;;;1.60;;
37449;SDS011;23309;52.582;13.406;2023-12-20T06:07:29;7.93;;;1.90;;
37449;SDS011;23309;52.582;13.406;2023-12-20T06:09:54;7.53;;;1.70;;
37449;SDS011;23309;52.582;13.406;2023-12-20T06:12:20;6.70;;;1.70;;
37449;SDS011;23309;52.582;13.406;2023-12-20T06:14:45;7.80;;;1.90;;
37449;SDS011;23309;52.582;13.406;2023-12-20T06:17:11;10.50;;;1.73;;
37449;SDS011;23309;52.582;13.406;2023-12-20T06:19:37;7.70;;;1.33;;
37449;SDS011;23309;52.582;13.406;2023-12-20T06:22:03;6.03;;;2.00;;
37449;SDS011;23309;52.582;13.406;2023-12-20T06:24:29;6.87;;;2.07;;
37449;SDS011;23309;52.582;13.406;2023-12-20T06:26:54;8.27;;;1.70;;
37449;SDS011;23309;52.582;13.406;2023-12-20T06:29:20;8.90;;;2.00;;
37449;SDS011;23309;52.582;13.406;2023-12-20T06:31:46;5.50;;;1.87;;
37449;SDS011;23309;52.582;13.406;2023-12-20T06:34:11;17.23;;;2.30;;
37449;SDS011;23309;52.582;13.406;2023-12-20T06:36:37;10.63;;;1.87;;
37449;SDS011;23309;52.582;13.406;2023-12-20T06:39:02;10.70;;;2.10;;
37449;SDS011;23309;52.582;13.406;2023-12-20T06:41:29;6.70;;;2.00;;
37449;SDS011;23309;52.582;13.406;2023-12-20T06:43:56;15.50;;;2.10;;
37449;SDS011;23309;52.582;13.406;2023-12-20T06:46:23;5.23;;;1.80;;
37449;SDS011;23309;52.582;13.406;2023-12-20T06:48:48;7.30;;;2.50;;
37449;SDS011;23309;52.582;13.406;2023-12-20T06:51:14;8.97;;;2.30;;
37449;SDS011;23309;52.582;13.406;2023-12-20T06:53:40;10.93;;;1.87;;
37449;SDS011;23309;52.582;13.406;2023-12-20T06:56:06;7.37;;;2.10;;
37449;SDS011;23309;52.582;13.406;2023-12-20T06:58:32;6.13;;;1.63;;
37449;SDS011;23309;52.582;13.406;2023-12-20T07:00:59;10.43;;;2.00;;
37449;SDS011;23309;52.582;13.406;2023-12-20T07:03:25;4.70;;;2.13;;
37449;SDS011;23309;52.582;13.406;2023-12-20T07:05:50;11.50;;;2.13;;
37449;SDS011;23309;52.582;13.406;2023-12-20T07:08:16;7.00;;;1.90;;
37449;SDS011;23309;52.582;13.406;2023-12-20T07:10:43;9.50;;;1.87;;
37449;SDS011;23309;52.582;13.406;2023-12-20T07:13:08;8.80;;;1.70;;
37449;SDS011;23309;52.582;13.406;2023-12-20T07:15:35;5.30;;;1.80;;
37449;SDS011;23309;52.582;13.406;2023-12-20T07:18:01;9.47;;;2.13;;
37449;SDS011;23309;52.582;13.406;2023-12-20T07:20:27;10.70;;;2.10;;
37449;SDS011;23309;52.582;13.406;2023-12-20T07:22:53;9.33;;;2.40;;
37449;SDS011;23309;52.582;13.406;2023-12-20T07:25:19;5.47;;;1.80;;
37449;SDS011;23309;52.582;13.406;2023-12-20T07:27:45;8.97;;;2.13;;
37449;SDS011;23309;52.582;13.406;2023-12-20T07:30:10;10.30;;;2.40;;
37449;SDS011;23309;52.582;13.406;2023-12-20T07:32:36;9.00;;;2.07;;
37449;SDS011;23309;52.582;13.406;2023-12-20T07:35:02;8.00;;;2.33;;
37449;SDS011;23309;52.582;13.406;2023-12-20T07:37:28;7.83;;;2.20;;
37449;SDS011;23309;52.582;13.406;2023-12-20T07:39:53;4.33;;;1.90;;
37449;SDS011;23309;52.582;13.406;2023-12-20T07:42:20;9.67;;;2.33;;
37449;SDS011;23309;52.582;13.406;2023-12-20T07:44:47;8.27;;;2.30;;
37449;SDS011;23309;52.582;13.406;2023-12-20T07:47:12;6.23;;;2.23;;
37449;SDS011;23309;52.582;13.406;2023-12-20T07:49:40;7.43;;;2.20;;
37449;SDS011;23309;52.582;13.406;2023-12-20T07:52:06;9.13;;;2.33;;
37449;SDS011;23309;52.582;13.406;2023-12-20T07:54:33;12.23;;;2.07;;
37449;SDS011;23309;52.582;13.406;2023-12-20T07:56:58;3.73;;;1.60;;
37449;SDS011;23309;52.582;13.406;2023-12-20T07:59:24;10.43;;;2.37;;
37449;SDS011;23309;52.582;13.406;2023-12-20T08:01:50;5.40;;;1.60;;
37449;SDS011;23309;52.582;13.406;2023-12-20T08:04:15;6.70;;;1.73;;
37449;SDS011;23309;52.582;13.406;2023-12-20T08:06:41;10.80;;;1.83;;
37449;SDS011;23309;52.582;13.406;2023-12-20T08:09:07;5.93;;;1.70;;
37449;SDS011;23309;52.582;13.406;2023-12-20T08:11:33;6.50;;;1.87;;
37449;SDS011;23309;52.582;13.406;2023-12-20T08:13:59;8.40;;;1.77;;
37449;SDS011;23309;52.582;13.406;2023-12-20T08:16:25;6.70;;;1.63;;
37449;SDS011;23309;52.582;13.406;2023-12-20T08:18:50;15.47;;;2.40;;
37449;SDS011;23309;52.582;13.406;2023-12-20T08:21:16;9.33;;;2.50;;
37449;SDS011;23309;52.582;13.406;2023-12-20T08:23:44;9.20;;;1.80;;
37449;SDS011;23309;52.582;13.406;2023-12-20T08:26:10;8.13;;;2.10;;
37449;SDS011;23309;52.582;13.406;2023-12-20T08:28:36;10.93;;;1.77;;
37449;SDS011;23309;52.582;13.406;2023-12-20T08:31:03;9.90;;;2.10;;
37449;SDS011;23309;52.582;13.406;2023-12-20T08:33:29;6.90;;;1.90;;
37449;SDS011;23309;52.582;13.406;2023-12-20T08:35:55;7.70;;;1.80;;
37449;SDS011;23309;52.582;13.406;2023-12-20T08:38:20;4.53;;;1.80;;
37449;SDS011;23309;52.582;13.406;2023-12-20T08:40:46;10.90;;;2.17;;
37449;SDS011;23309;52.582;13.406;2023-12-20T08:43:12;8.63;;;2.13;;
37449;SDS011;23309;52.582;13.406;2023-12-20T08:45:37;5.67;;;1.93;;
37449;SDS011;23309;52.582;13.406;2023-12-20T08:48:05;6.30;;;2.10;;
37449;SDS011;23309;52.582;13.406;2023-12-20T08:50:31;8.00;;;2.10;;
37449;SDS011;23309;52.582;13.406;2023-12-20T08:52:57;11.63;;;2.10;;
37449;SDS011;23309;52.582;13.406;2023-12-20T08:55:23;8.47;;;1.90;;
37449;SDS011;23309;52.582;13.406;2023-12-20T08:57:48;5.53;;;2.17;;
37449;SDS011;23309;52.582;13.406;2023-12-20T09:00:15;12.90;;;2.43;;
37449;SDS011;23309;52.582;13.406;2023-12-20T09:02:41;9.07;;;1.93;;
37449;SDS011;23309;52.582;13.406;2023-12-20T09:05:07;4.03;;;1.60;;
37449;SDS011;23309;52.582;13.406;2023-12-20T09:07:32;8.10;;;1.90;;
37449;SDS011;23309;52.582;13.406;2023-12-20T09:09:58;9.63;;;2.60;;
37449;SDS011;23309;52.582;13.406;2023-12-20T09:12:24;4.60;;;2.00;;
37449;SDS011;23309;52.582;13.406;2023-12-20T09:14:50;9.20;;;2.33;;
37449;SDS011;23309;52.582;13.406;2023-12-20T09:17:16;5.73;;;1.97;;
37449;SDS011;23309;52.582;13.406;2023-12-20T09:19:43;6.90;;;2.20;;
37449;SDS011;23309;52.582;13.406;2023-12-20T09:22:09;14.37;;;2.17;;
37449;SDS011;23309;52.582;13.406;2023-12-20T09:24:35;7.93;;;2.13;;
37449;SDS011;23309;52.582;13.406;2023-12-20T09:27:00;8.77;;;1.90;;
37449;SDS011;23309;52.582;13.406;2023-12-20T09:29:27;7.03;;;2.00;;
37449;SDS011;23309;52.582;13.406;2023-12-20T09:31:53;8.03;;;1.90;;
37449;SDS011;23309;52.582;13.406;2023-12-20T09:34:18;12.97;;;2.50;;
37449;SDS011;23309;52.582;13.406;2023-12-20T09:36:44;8.30;;;1.97;;
37449;SDS011;23309;52.582;13.406;2023-12-20T09:39:13;8.17;;;1.93;;
37449;SDS011;23309;52.582;13.406;2023-12-20T09:41:40;11.07;;;2.30;;
37449;SDS011;23309;52.582;13.406;2023-12-20T09:44:08;10.47;;;2.47;;
37449;SDS011;23309;52.582;13.406;2023-12-20T09:46:42;10.10;;;2.53;;
37449;SDS011;23309;52.582;13.406;2023-12-20T09:49:10;9.97;;;2.00;;
37449;SDS011;23309;52.582;13.406;2023-12-20T09:51:36;8.07;;;2.03;;
37449;SDS011;23309;52.582;13.406;2023-12-20T09:54:03;7.17;;;1.70;;
37449;SDS011;23309;52.582;13.406;2023-12-20T09:56:30;9.13;;;2.80;;
37449;SDS011;23309;52.582;13.406;2023-12-20T09:58:55;5.13;;;1.80;;
37449;SDS011;23309;52.582;13.406;2023-12-20T10:01:21;8.90;;;2.10;;
37449;SDS011;23309;52.582;13.406;2023-12-20T10:03:48;9.33;;;2.03;;
37449;SDS011;23309;52.582;13.406;2023-12-20T10:06:16;8.20;;;2.30;;
37449;SDS011;23309;52.582;13.406;2023-12-20T10:08:42;10.53;;;2.63;;
37449;SDS011;23309;52.582;13.406;2023-12-20T10:11:07;5.37;;;1.93;;
37449;SDS011;23309;52.582;13.406;2023-12-20T10:13:33;9.50;;;2.57;;
37449;SDS011;23309;52.582;13.406;2023-12-20T10:15:59;7.67;;;2.77;;
37449;SDS011;23309;52.582;13.406;2023-12-20T10:18:25;8.13;;;2.43;;
37449;SDS011;23309;52.582;13.406;2023-12-20T10:20:51;10.90;;;2.60;;
37449;SDS011;23309;52.582;13.406;2023-12-20T10:23:16;5.67;;;2.17;;
37449;SDS011;23309;52.582;13.406;2023-12-20T10:25:43;9.90;;;2.47;;
37449;SDS011;23309;52.582;13.406;2023-12-20T10:28:12;8.30;;;2.50;;
37449;SDS011;23309;52.582;13.406;2023-12-20T10:30:40;5.73;;;2.27;;
37449;SDS011;23309;52.582;13.406;2023-12-20T10:33:06;10.13;;;2.67;;
37449;SDS011;23309;52.582;13.406;2023-12-20T10:35:35;8.63;;;2.33;;
37449;SDS011;23309;52.582;13.406;2023-12-20T10:38:05;8.53;;;2.40;;
37449;SDS011;23309;52.582;13.406;2023-12-20T10:40:35;8.60;;;2.33;;
37449;SDS011;23309;52.582;13.406;2023-12-20T10:43:03;7.17;;;2.33;;
37449;SDS011;23309;52.582;13.406;2023-12-20T10:45:29;8.40;;;2.57;;
37449;SDS011;23309;52.582;13.406;2023-12-20T10:47:55;6.43;;;2.07;;
37449;SDS011;23309;52.582;13.406;2023-12-20T10:50:21;7.83;;;2.50;;
37449;SDS011;23309;52.582;13.406;2023-12-20T10:52:47;7.00;;;2.60;;
37449;SDS011;23309;52.582;13.406;2023-12-20T10:55:13;7.03;;;2.20;;
37449;SDS011;23309;52.582;13.406;2023-12-20T10:57:39;15.73;;;2.70;;
37449;SDS011;23309;52.582;13.406;2023-12-20T11:00:06;10.60;;;2.10;;
37449;SDS011;23309;52.582;13.406;2023-12-20T11:02:35;11.37;;;2.47;;
37449;SDS011;23309;52.582;13.406;2023-12-20T11:05:15;7.03;;;2.47;;
37449;SDS011;23309;52.582;13.406;2023-12-20T11:07:48;12.03;;;2.73;;
37449;SDS011;23309;52.582;13.406;2023-12-20T11:12:47;9.33;;;2.87;;
37449;SDS011;23309;52.582;13.406;2023-12-20T11:15:16;10.90;;;2.83;;
37449;SDS011;23309;52.582;13.406;2023-12-20T11:17:44;8.50;;;2.73;;
37449;SDS011;23309;52.582;13.406;2023-12-20T11:20:11;13.97;;;3.40;;
37449;SDS011;23309;52.582;13.406;2023-12-20T11:22:38;7.10;;;2.33;;
37449;SDS011;23309;52.582;13.406;2023-12-20T11:25:10;8.57;;;2.60;;
37449;SDS011;23309;52.582;13.406;2023-12-20T11:27:36;10.27;;;3.43;;
37449;SDS011;23309;52.582;13.406;2023-12-20T11:30:05;8.63;;;2.90;;
37449;SDS011;23309;52.582;13.406;2023-12-20T11:32:33;5.50;;;2.20;;
37449;SDS011;23309;52.582;13.406;2023-12-20T11:37:37;9.37;;;2.43;;
37449;SDS011;23309;52.582;13.406;2023-12-20T11:40:08;11.30;;;2.30;;
37449;SDS011;23309;52.582;13.406;2023-12-20T11:42:42;10.30;;;2.10;;
37449;SDS011;23309;52.582;13.406;2023-12-20T11:45:14;9.33;;;2.40;;
37449;SDS011;23309;52.582;13.406;2023-12-20T11:47:43;11.37;;;2.50;;
37449;SDS011;23309;52.582;13.406;2023-12-20T11:50:10;7.83;;;2.67;;
37449;SDS011;23309;52.582;13.406;2023-12-20T11:52:36;8.13;;;2.37;;
37449;SDS011;23309;52.582;13.406;2023-12-20T11:55:02;10.53;;;2.67;;
37449;SDS011;23309;52.582;13.406;2023-12-20T11:57:28;9.57;;;2.40;;
37449;SDS011;23309;52.582;13.406;2023-12-20T11:59:54;9.47;;;2.23;;
37449;SDS011;23309;52.582;13.406;2023-12-20T12:02:21;9.40;;;2.33;;
37449;SDS011;23309;52.582;13.406;2023-12-20T12:04:48;14.10;;;3.30;;
37449;SDS011;23309;52.582;13.406;2023-12-20T12:07:13;7.73;;;2.43;;
37449;SDS011;23309;52.582;13.406;2023-12-20T12:09:39;9.90;;;2.40;;
37449;SDS011;23309;52.582;13.406;2023-12-20T12:12:05;8.83;;;2.93;;
37449;SDS011;23309;52.582;13.406;2023-12-20T12:14:31;9.40;;;2.73;;
37449;SDS011;23309;52.582;13.406;2023-12-20T12:16:57;9.00;;;2.10;;
37449;SDS011;23309;52.582;13.406;2023-12-20T12:19:23;7.93;;;2.30;;
37449;SDS011;23309;52.582;13.406;2023-12-20T12:22:08;9.20;;;3.30;;
37449;SDS011;23309;52.582;13.406;2023-12-20T12:24:39;7.87;;;2.20;;
37449;SDS011;23309;52.582;13.406;2023-12-20T12:27:08;8.20;;;2.40;;
37449;SDS011;23309;52.582;13.406;2023-12-20T12:29:34;5.40;;;1.97;;
37449;SDS011;23309;52.582;13.406;2023-12-20T12:32:00;7.97;;;2.30;;
37449;SDS011;23309;52.582;13.406;2023-12-20T12:34:27;10.30;;;2.43;;
37449;SDS011;23309;52.582;13.406;2023-12-20T12:36:53;9.07;;;2.30;;
37449;SDS011;23309;52.582;13.406;2023-12-20T12:39:19;7.60;;;2.17;;
37449;SDS011;23309;52.582;13.406;2023-12-20T12:41:45;5.60;;;2.10;;
37449;SDS011;23309;52.582;13.406;2023-12-20T12:44:10;6.40;;;1.70;;
37449;SDS011;23309;52.582;13.406;2023-12-20T12:46:36;7.23;;;1.90;;
37449;SDS011;23309;52.582;13.406;2023-12-20T12:49:01;6.73;;;2.17;;
37449;SDS011;23309;52.582;13.406;2023-12-20T12:51:27;9.87;;;2.03;;
37449;SDS011;23309;52.582;13.406;2023-12-20T12:53:53;7.93;;;1.80;;
37449;SDS011;23309;52.582;13.406;2023-12-20T12:56:20;8.30;;;2.13;;
37449;SDS011;23309;52.582;13.406;2023-12-20T12:58:47;5.50;;;2.03;;
37449;SDS011;23309;52.582;13.406;2023-12-20T13:01:12;7.40;;;2.17;;
37449;SDS011;23309;52.582;13.406;2023-12-20T13:03:39;11.30;;;2.00;;
37449;SDS011;23309;52.582;13.406;2023-12-20T13:06:05;5.07;;;1.93;;
37449;SDS011;23309;52.582;13.406;2023-12-20T13:08:31;6.70;;;2.10;;
37449;SDS011;23309;52.582;13.406;2023-12-20T13:10:56;8.13;;;2.07;;
37449;SDS011;23309;52.582;13.406;2023-12-20T13:13:25;6.97;;;2.27;;
37449;SDS011;23309;52.582;13.406;2023-12-20T13:15:54;6.30;;;2.00;;
37449;SDS011;23309;52.582;13.406;2023-12-20T13:18:20;5.10;;;1.97;;
37449;SDS011;23309;52.582;13.406;2023-12-20T13:20:49;6.20;;;2.27;;
37449;SDS011;23309;52.582;13.406;2023-12-20T13:23:14;3.30;;;1.30;;
37449;SDS011;23309;52.582;13.406;2023-12-20T13:25:41;10.33;;;1.80;;
37449;SDS011;23309;52.582;13.406;2023-12-20T13:28:07;5.03;;;1.50;;
37449;SDS011;23309;52.582;13.406;2023-12-20T13:30:33;2.37;;;1.13;;
37449;SDS011;23309;52.582;13.406;2023-12-20T13:32:59;3.40;;;1.10;;
37449;SDS011;23309;52.582;13.406;2023-12-20T13:35:24;4.00;;;1.10;;
37449;SDS011;23309;52.582;13.406;2023-12-20T13:37:50;4.80;;;1.40;;
37449;SDS011;23309;52.582;13.406;2023-12-20T13:40:16;5.63;;;1.00;;
37449;SDS011;23309;52.582;13.406;2023-12-20T13:42:41;4.73;;;1.50;;
37449;SDS011;23309;52.582;13.406;2023-12-20T13:45:07;2.63;;;1.10;;
37449;SDS011;23309;52.582;13.406;2023-12-20T13:47:33;2.67;;;1.00;;
37449;SDS011;23309;52.582;13.406;2023-12-20T13:50:00;3.10;;;1.40;;
37449;SDS011;23309;52.582;13.406;2023-12-20T13:52:25;4.80;;;1.00;;
37449;SDS011;23309;52.582;13.406;2023-12-20T13:54:51;3.83;;;0.97;;
37449;SDS011;23309;52.582;13.406;2023-12-20T13:57:17;2.73;;;1.40;;
37449;SDS011;23309;52.582;13.406;2023-12-20T13:59:43;2.53;;;1.40;;
37449;SDS011;23309;52.582;13.406;2023-12-20T14:02:08;3.40;;;1.37;;
37449;SDS011;23309;52.582;13.406;2023-12-20T14:04:34;1.40;;;1.10;;
37449;SDS011;23309;52.582;13.406;2023-12-20T14:07:00;2.37;;;1.23;;
37449;SDS011;23309;52.582;13.406;2023-12-20T14:09:25;4.20;;;1.13;;
37449;SDS011;23309;52.582;13.406;2023-12-20T14:11:51;2.30;;;1.40;;
37449;SDS011;23309;52.582;13.406;2023-12-20T14:14:16;2.50;;;1.10;;
37449;SDS011;23309;52.582;13.406;2023-12-20T14:16:42;2.67;;;1.20;;
37449;SDS011;23309;52.582;13.406;2023-12-20T14:19:10;5.10;;;1.20;;
37449;SDS011;23309;52.582;13.406;2023-12-20T14:21:36;2.60;;;1.17;;
37449;SDS011;23309;52.582;13.406;2023-12-20T14:24:01;2.00;;;1.37;;
37449;SDS011;23309;52.582;13.406;2023-12-20T14:26:28;1.90;;;1.20;;
37449;SDS011;23309;52.582;13.406;2023-12-20T14:28:54;2.13;;;1.07;;
37449;SDS011;23309;52.582;13.406;2023-12-20T14:31:20;4.40;;;1.10;;
37449;SDS011;23309;52.582;13.406;2023-12-20T14:33:46;2.20;;;0.97;;
37449;SDS011;23309;52.582;13.406;2023-12-20T14:36:12;4.13;;;1.00;;
37449;SDS011;23309;52.582;13.406;2023-12-20T14:38:37;4.60;;;1.07;;
37449;SDS011;23309;52.582;13.406;2023-12-20T14:41:04;3.73;;;1.00;;
37449;SDS011;23309;52.582;13.406;2023-12-20T14:43:33;3.10;;;1.10;;
37449;SDS011;23309;52.582;13.406;2023-12-20T14:45:58;3.10;;;1.10;;
37449;SDS011;23309;52.582;13.406;2023-12-20T14:48:24;2.03;;;1.17;;